Time;durP1;ratioP1;P1;durP2;ratioP2;P2;SDS_P1;SDS_P2;PMS_P1;PMS_P2;Temp;Humidity;BMP_temperature;BMP_pressure;BME280_temperature;BME280_humidity;BME280_pressure;Samples;Min_cycle;Max_cycle;Signal;HPM_P1;HPM_P2
2021/01/28 00:01:08;;;;;;;31.33;23.00;;;5.70;99.90;;;;;;5103631;28;20459;-74
2021/01/28 00:03:35;;;;;;;35.40;25.07;;;5.60;99.90;;;;;;5099836;28;20460;-74
2021/01/28 00:06:02;;;;;;;48.33;24.17;;;5.60;99.90;;;;;;5094467;28;20460;-74
2021/01/28 00:08:28;;;;;;;36.80;23.10;;;5.60;99.90;;;;;;5102478;28;20490;-74
2021/01/28 00:10:55;;;;;;;37.37;24.43;;;5.60;99.90;;;;;;5099592;28;20465;-74
2021/01/28 00:13:21;;;;;;;34.20;22.47;;;5.60;99.90;;;;;;5097049;28;20503;-74
2021/01/28 00:15:47;;;;;;;32.70;22.00;;;5.60;99.90;;;;;;5096019;28;20510;-74
2021/01/28 00:18:16;;;;;;;38.03;23.80;;;5.60;99.90;;;;;;5095071;28;20992;-74
2021/01/28 00:20:45;;;;;;;28.60;21.47;;;5.70;99.90;;;;;;5106671;28;20883;-74
2021/01/28 00:23:11;;;;;;;34.40;22.27;;;5.60;99.90;;;;;;5096232;28;20956;-74
2021/01/28 00:25:39;;;;;;;35.20;24.40;;;5.70;99.90;;;;;;5095971;28;20454;-74
2021/01/28 00:28:06;;;;;;;32.03;21.07;;;5.60;99.90;;;;;;5097256;28;20824;-74
2021/01/28 00:30:35;;;;;;;33.80;22.47;;;5.50;99.90;;;;;;5095409;28;20453;-74
2021/01/28 00:33:04;;;;;;;31.63;22.87;;;5.50;99.90;;;;;;5102044;28;20549;-74
2021/01/28 00:35:34;;;;;;;26.20;19.77;;;5.60;99.90;;;;;;5098539;28;20457;-74
2021/01/28 00:38:01;;;;;;;34.60;22.50;;;5.60;99.90;;;;;;5095607;28;20490;-74
2021/01/28 00:40:30;;;;;;;36.43;23.63;;;5.70;99.90;;;;;;5096645;28;20462;-74
2021/01/28 00:42:57;;;;;;;33.80;22.07;;;5.70;99.90;;;;;;5096618;28;20465;-74
2021/01/28 00:45:26;;;;;;;27.60;22.10;;;5.60;99.90;;;;;;5099604;28;20461;-74
2021/01/28 00:47:52;;;;;;;26.03;20.93;;;5.60;99.90;;;;;;5100258;28;20997;-74
2021/01/28 00:50:22;;;;;;;39.97;22.40;;;5.70;99.90;;;;;;5097251;28;20465;-74
2021/01/28 00:52:50;;;;;;;25.43;18.67;;;5.70;99.90;;;;;;5094926;28;20486;-74
2021/01/28 00:55:18;;;;;;;29.73;21.47;;;5.70;99.90;;;;;;5096722;28;20453;-74
2021/01/28 00:57:46;;;;;;;29.70;20.10;;;5.80;99.90;;;;;;5095768;28;20484;-74
2021/01/28 01:00:18;;;;;;;33.40;21.17;;;5.70;99.90;;;;;;5099264;28;20522;-74
2021/01/28 01:02:45;;;;;;;28.07;19.60;;;5.90;99.90;;;;;;5096946;28;20457;-74
2021/01/28 01:05:15;;;;;;;27.07;19.80;;;5.80;99.90;;;;;;5097146;28;20856;-74
2021/01/28 01:07:41;;;;;;;26.27;19.20;;;5.80;99.90;;;;;;5100187;28;20884;-74
2021/01/28 01:10:11;;;;;;;31.03;21.20;;;5.70;99.90;;;;;;5092387;28;20458;-74
2021/01/28 01:12:39;;;;;;;31.03;20.63;;;5.80;99.90;;;;;;5096704;28;20469;-74
2021/01/28 01:15:07;;;;;;;32.50;21.60;;;5.90;99.90;;;;;;5094751;28;20454;-74
2021/01/28 01:17:34;;;;;;;31.00;21.00;;;5.70;99.90;;;;;;5094602;28;20490;-74
2021/01/28 01:20:01;;;;;;;25.80;19.43;;;5.80;99.90;;;;;;5093789;28;20469;-74
2021/01/28 01:22:27;;;;;;;30.37;20.57;;;5.70;99.90;;;;;;5094138;28;20462;-74
2021/01/28 01:24:53;;;;;;;31.10;20.30;;;5.70;99.90;;;;;;5098089;28;20972;-74
2021/01/28 01:27:21;;;;;;;28.93;21.77;;;5.80;99.90;;;;;;5095871;28;20450;-74
2021/01/28 01:29:48;;;;;;;31.40;22.27;;;5.80;99.90;;;;;;5090903;28;20466;-74
2021/01/28 01:32:14;;;;;;;35.17;21.63;;;5.70;99.90;;;;;;5094985;28;20864;-74
2021/01/28 01:34:41;;;;;;;29.13;20.63;;;5.60;99.90;;;;;;5095127;28;20984;-74
2021/01/28 01:37:07;;;;;;;28.33;21.83;;;5.60;99.90;;;;;;5093493;28;20547;-74
2021/01/28 01:39:33;;;;;;;35.00;20.87;;;5.60;99.90;;;;;;5098314;28;20454;-74
2021/01/28 01:41:59;;;;;;;29.60;22.20;;;5.80;99.90;;;;;;5092899;28;20963;-74
2021/01/28 01:44:26;;;;;;;30.80;20.57;;;5.90;99.90;;;;;;5099135;28;20466;-74
2021/01/28 01:46:54;;;;;;;29.03;21.80;;;5.90;99.90;;;;;;5097971;28;20469;-74
2021/01/28 01:49:24;;;;;;;29.57;21.33;;;5.90;99.90;;;;;;5095552;28;20814;-74
2021/01/28 01:51:51;;;;;;;27.07;20.60;;;5.90;99.90;;;;;;5092129;28;20463;-74
2021/01/28 01:54:26;;;;;;;29.30;20.40;;;6.00;99.90;;;;;;5094490;28;20488;-74
2021/01/28 01:56:57;;;;;;;28.53;21.17;;;6.00;99.90;;;;;;5100079;28;20568;-74
2021/01/28 01:59:30;;;;;;;35.60;23.50;;;6.00;99.90;;;;;;5102513;28;20966;-74
2021/01/28 02:02:01;;;;;;;31.97;21.80;;;6.00;99.90;;;;;;5095226;28;20485;-74
2021/01/28 02:04:30;;;;;;;27.10;21.57;;;6.00;99.90;;;;;;5095686;28;20523;-74
2021/01/28 02:07:03;;;;;;;26.33;20.83;;;5.90;99.90;;;;;;5095153;28;20461;-74
2021/01/28 02:09:29;;;;;;;28.43;22.00;;;5.90;99.90;;;;;;5099469;28;20474;-74
2021/01/28 02:11:56;;;;;;;26.03;20.87;;;5.90;99.90;;;;;;5098022;28;20470;-74
2021/01/28 02:14:22;;;;;;;34.60;22.23;;;5.90;99.90;;;;;;5093506;28;20797;-74
2021/01/28 02:16:51;;;;;;;32.43;23.63;;;5.80;99.90;;;;;;5094636;28;20469;-74
2021/01/28 02:19:33;;;;;;;32.47;21.80;;;5.80;99.90;;;;;;5094148;28;20518;-74
2021/01/28 02:22:01;;;;;;;29.90;23.93;;;5.90;99.90;;;;;;5096587;28;20458;-74
2021/01/28 02:24:35;;;;;;;32.10;21.00;;;5.90;99.90;;;;;;5094761;28;20461;-74
2021/01/28 02:27:08;;;;;;;29.73;22.20;;;6.00;99.90;;;;;;5100388;28;20453;-74
2021/01/28 02:29:35;;;;;;;32.70;22.60;;;6.00;99.90;;;;;;5090103;28;20466;-74
2021/01/28 02:32:03;;;;;;;34.10;22.00;;;6.00;99.90;;;;;;5100575;28;20467;-74
2021/01/28 02:34:31;;;;;;;26.43;21.93;;;6.00;99.90;;;;;;5095330;28;20462;-74
2021/01/28 02:36:58;;;;;;;26.57;20.97;;;5.90;99.90;;;;;;5093874;28;20508;-74
2021/01/28 02:39:27;;;;;;;25.57;22.67;;;6.00;99.90;;;;;;5091602;28;20459;-74
2021/01/28 02:41:59;;;;;;;23.97;20.70;;;6.10;99.90;;;;;;5100473;28;20487;-74
2021/01/28 02:44:26;;;;;;;23.90;21.30;;;6.00;99.90;;;;;;5093512;28;20523;-74
2021/01/28 02:46:53;;;;;;;24.47;21.83;;;6.00;99.90;;;;;;5095236;28;20534;-74
2021/01/28 02:49:20;;;;;;;24.43;22.03;;;6.00;99.90;;;;;;5094984;28;20473;-74
2021/01/28 02:51:47;;;;;;;24.53;21.03;;;6.10;99.90;;;;;;5099337;28;20457;-74
2021/01/28 02:54:14;;;;;;;27.87;21.13;;;6.10;99.90;;;;;;5094251;28;20485;-74
2021/01/28 02:56:40;;;;;;;27.57;21.70;;;6.00;99.90;;;;;;5092060;28;20489;-74
2021/01/28 02:59:08;;;;;;;28.63;21.77;;;5.90;99.90;;;;;;5089216;28;20936;-74
2021/01/28 03:01:39;;;;;;;26.40;21.07;;;5.90;99.90;;;;;;5097515;28;20490;-74
2021/01/28 03:04:08;;;;;;;35.90;23.27;;;5.80;99.90;;;;;;5095206;28;20553;-74
2021/01/28 03:06:34;;;;;;;34.23;23.00;;;5.80;99.90;;;;;;5096467;28;20462;-74
2021/01/28 03:09:01;;;;;;;32.57;24.10;;;5.80;99.90;;;;;;5094831;28;21280;-74
2021/01/28 03:11:29;;;;;;;30.37;24.20;;;5.80;99.90;;;;;;5099630;28;20468;-74
2021/01/28 03:13:56;;;;;;;28.83;21.70;;;5.80;99.90;;;;;;5100257;28;20470;-74
2021/01/28 03:16:23;;;;;;;32.10;22.83;;;5.80;99.90;;;;;;5098434;28;20461;-74
2021/01/28 03:18:52;;;;;;;25.83;22.40;;;5.80;99.90;;;;;;5097361;28;20462;-74
2021/01/28 03:21:20;;;;;;;27.03;23.43;;;5.90;99.90;;;;;;5099160;28;20604;-74
2021/01/28 03:23:46;;;;;;;28.13;21.60;;;5.80;99.90;;;;;;5099272;28;20472;-74
2021/01/28 03:26:12;;;;;;;25.13;22.30;;;5.80;99.90;;;;;;5098815;28;20466;-74
2021/01/28 03:28:40;;;;;;;22.37;20.20;;;5.90;99.90;;;;;;5102027;28;20485;-74
2021/01/28 03:31:06;;;;;;;23.47;20.97;;;5.90;99.90;;;;;;5093644;28;20489;-74
2021/01/28 03:33:33;;;;;;;24.07;20.00;;;5.90;99.90;;;;;;5100680;28;20457;-74
2021/01/28 03:36:00;;;;;;;24.90;21.10;;;5.80;99.90;;;;;;5099890;28;21130;-74
2021/01/28 03:38:27;;;;;;;25.50;22.70;;;5.80;99.90;;;;;;5095344;28;21228;-74
2021/01/28 03:40:54;;;;;;;29.33;22.93;;;5.70;99.90;;;;;;5102293;28;20458;-73
2021/01/28 03:43:22;;;;;;;26.83;22.27;;;5.70;99.90;;;;;;5100648;28;20469;-73
2021/01/28 03:45:50;;;;;;;26.73;22.20;;;5.70;99.90;;;;;;5104687;28;20807;-73
2021/01/28 03:48:18;;;;;;;27.97;24.27;;;5.70;99.90;;;;;;5098437;28;20455;-73
2021/01/28 03:50:45;;;;;;;30.23;24.20;;;5.80;99.90;;;;;;5095994;28;20492;-73
2021/01/28 03:53:12;;;;;;;28.70;24.77;;;5.80;99.90;;;;;;5099592;28;20486;-74
2021/01/28 03:55:38;;;;;;;26.20;23.60;;;5.80;99.90;;;;;;5100507;28;20461;-74
2021/01/28 03:58:05;;;;;;;25.93;23.23;;;5.80;99.90;;;;;;5099729;28;20485;-74
2021/01/28 04:00:34;;;;;;;26.20;23.60;;;5.80;99.90;;;;;;5096586;28;20470;-73
2021/01/28 04:03:01;;;;;;;24.97;22.50;;;5.80;99.90;;;;;;5098686;28;20594;-74
2021/01/28 04:05:28;;;;;;;25.57;22.90;;;5.80;99.90;;;;;;5095310;28;20816;-74
2021/01/28 04:07:54;;;;;;;24.20;22.00;;;5.80;99.90;;;;;;5095451;28;20795;-74
2021/01/28 04:10:26;;;;;;;24.77;22.17;;;5.80;99.90;;;;;;5092259;28;20866;-74
2021/01/28 04:12:53;;;;;;;25.10;22.43;;;5.70;99.90;;;;;;5098634;28;20466;-74
2021/01/28 04:15:20;;;;;;;25.10;22.53;;;5.80;99.90;;;;;;5102334;28;20465;-74
2021/01/28 04:17:48;;;;;;;24.73;22.20;;;5.80;99.90;;;;;;5101619;28;20840;-74
2021/01/28 04:20:17;;;;;;;25.90;21.53;;;5.80;99.90;;;;;;5096705;28;20453;-74
2021/01/28 04:22:43;;;;;;;75.53;24.30;;;5.80;99.90;;;;;;5104062;28;20819;-74
2021/01/28 04:25:14;;;;;;;34.53;22.33;;;5.70;99.90;;;;;;5090863;28;20860;-76
2021/01/28 04:27:43;;;;;;;56.10;25.57;;;5.70;99.90;;;;;;5098526;28;20479;-77
2021/01/28 04:30:13;;;;;;;122.37;27.63;;;5.70;99.90;;;;;;5097002;28;20465;-76
2021/01/28 04:32:41;;;;;;;262.93;29.30;;;5.80;99.90;;;;;;5096981;28;20462;-75
2021/01/28 04:35:09;;;;;;;404.60;32.27;;;5.80;99.90;;;;;;5096914;28;20461;-77
2021/01/28 04:37:36;;;;;;;363.23;35.73;;;5.70;99.90;;;;;;5091952;28;20482;-77
2021/01/28 04:40:04;;;;;;;344.33;32.83;;;5.70;99.90;;;;;;5096089;28;20523;-77
2021/01/28 04:42:41;;;;;;;460.53;33.87;;;5.60;99.90;;;;;;5100839;28;20469;-77
2021/01/28 04:45:12;;;;;;;298.60;31.23;;;5.60;99.90;;;;;;5094817;28;20469;-77
2021/01/28 04:47:42;;;;;;;210.87;27.43;;;5.60;99.90;;;;;;5098829;28;20464;-79
2021/01/28 04:50:12;;;;;;;330.83;29.03;;;5.60;99.90;;;;;;5103114;28;20455;-77
2021/01/28 04:52:41;;;;;;;499.27;34.57;;;5.60;99.90;;;;;;5091395;28;20496;-77
2021/01/28 04:55:11;;;;;;;170.87;28.20;;;5.70;99.90;;;;;;5098941;28;20462;-78
2021/01/28 04:57:38;;;;;;;319.23;30.10;;;5.80;99.90;;;;;;5094914;28;20486;-78
2021/01/28 05:00:06;;;;;;;234.13;29.13;;;5.80;99.90;;;;;;5094901;28;20465;-75
2021/01/28 05:02:33;;;;;;;244.00;28.17;;;5.70;99.90;;;;;;5096428;28;20466;-79
2021/01/28 05:05:05;;;;;;;216.07;33.67;;;5.80;99.90;;;;;;5093929;28;20457;-77
2021/01/28 05:07:34;;;;;;;70.67;23.93;;;5.70;99.90;;;;;;5091534;28;20493;-77
2021/01/28 05:10:08;;;;;;;185.77;29.80;;;5.70;99.90;;;;;;5100231;28;20458;-78
2021/01/28 05:12:35;;;;;;;116.53;27.40;;;5.60;99.90;;;;;;5098964;28;20467;-78
2021/01/28 05:15:16;;;;;;;33.03;22.80;;;5.70;99.90;;;;;;5096863;28;20488;-78
2021/01/28 05:17:54;;;;;;;24.77;22.43;;;5.60;99.90;;;;;;5094467;28;20485;-76
2021/01/28 05:20:23;;;;;;;24.90;22.53;;;5.60;99.90;;;;;;5095383;28;20454;-78
2021/01/28 05:22:58;;;;;;;24.90;22.20;;;5.60;99.90;;;;;;5094981;28;20887;-77
2021/01/28 05:25:33;;;;;;;23.67;21.47;;;5.70;99.90;;;;;;5102342;28;20457;-74
2021/01/28 05:28:16;;;;;;;25.20;22.83;;;5.60;99.90;;;;;;5090260;28;20462;-79
2021/01/28 05:30:44;;;;;;;25.73;23.03;;;5.60;99.90;;;;;;5098064;28;20822;-78
2021/01/28 05:33:27;;;;;;;25.93;23.23;;;5.60;99.90;;;;;;5096823;28;20479;-77
2021/01/28 05:36:03;;;;;;;24.63;22.23;;;5.60;99.90;;;;;;5090060;28;20458;-78
2021/01/28 05:38:35;;;;;;;23.90;21.67;;;5.50;99.90;;;;;;5089076;28;20580;-76
2021/01/28 05:41:02;;;;;;;24.20;21.73;;;5.50;99.90;;;;;;5091032;28;20467;-77
2021/01/28 05:43:33;;;;;;;23.90;21.63;;;5.50;99.90;;;;;;5090627;28;20461;-75
2021/01/28 05:46:16;;;;;;;24.77;22.40;;;5.50;99.90;;;;;;5097970;28;20463;-77
2021/01/28 05:48:45;;;;;;;23.53;21.13;;;5.30;99.90;;;;;;5098325;28;21000;-77
2021/01/28 05:51:15;;;;;;;23.13;21.13;;;5.30;99.90;;;;;;5097328;28;20469;-74
2021/01/28 05:53:56;;;;;;;22.30;20.10;;;5.40;99.90;;;;;;5100430;28;20567;-77
2021/01/28 05:56:24;;;;;;;22.70;20.70;;;5.40;99.90;;;;;;5095542;28;20544;-77
2021/01/28 05:58:59;;;;;;;22.33;20.40;;;5.40;99.90;;;;;;5089811;28;20488;-77
2021/01/28 06:01:38;;;;;;;21.33;19.53;;;5.30;99.90;;;;;;5097539;28;20466;-75
2021/01/28 06:04:30;;;;;;;20.67;18.60;;;5.30;99.90;;;;;;5097804;28;20461;-77
2021/01/28 06:07:12;;;;;;;20.70;18.63;;;5.30;99.90;;;;;;5093324;28;20522;-76
2021/01/28 06:09:56;;;;;;;20.60;18.90;;;5.20;99.90;;;;;;5094659;28;20937;-75
2021/01/28 06:12:54;;;;;;;21.00;18.90;;;5.10;99.90;;;;;;5100990;28;20462;-75
2021/01/28 06:15:33;;;;;;;19.50;17.70;;;5.10;99.90;;;;;;5088907;28;20459;-75
2021/01/28 06:18:12;;;;;;;20.30;18.60;;;5.00;99.90;;;;;;5090902;28;20492;-75
2021/01/28 06:20:53;;;;;;;18.67;17.30;;;5.10;99.90;;;;;;5103785;28;20458;-75
2021/01/28 06:23:47;;;;;;;18.23;16.73;;;5.10;99.90;;;;;;5095952;28;20522;-75
2021/01/28 06:26:28;;;;;;;18.80;17.20;;;5.10;99.90;;;;;;5097679;28;20458;-75
2021/01/28 06:29:35;;;;;;;18.27;16.87;;;5.20;99.90;;;;;;5089165;28;20465;-75
2021/01/28 06:32:26;;;;;;;17.77;16.37;;;5.10;99.90;;;;;;5097272;28;20465;-75
2021/01/28 06:35:10;;;;;;;19.30;17.73;;;5.20;99.90;;;;;;5097010;28;20504;-75
2021/01/28 06:37:51;;;;;;;18.53;17.17;;;5.10;99.90;;;;;;5095055;28;20478;-75
2021/01/28 06:40:24;;;;;;;18.30;16.80;;;5.00;99.90;;;;;;5097173;28;20519;-75
2021/01/28 06:42:57;;;;;;;17.67;16.20;;;5.00;99.90;;;;;;5094649;28;21077;-75
2021/01/28 06:45:30;;;;;;;17.10;15.90;;;5.00;99.90;;;;;;5092246;28;20453;-75
2021/01/28 06:48:00;;;;;;;18.30;16.90;;;4.90;99.90;;;;;;5100583;28;20476;-75
2021/01/28 06:50:34;;;;;;;17.07;15.77;;;4.90;99.90;;;;;;5094185;28;20457;-75
2021/01/28 06:53:11;;;;;;;17.53;16.20;;;4.90;99.90;;;;;;5100874;28;20480;-75
2021/01/28 06:55:45;;;;;;;16.90;15.60;;;5.00;99.90;;;;;;5097772;28;20452;-75
2021/01/28 06:58:43;;;;;;;16.60;15.30;;;5.00;99.90;;;;;;5099831;28;20489;-75
2021/01/28 07:01:15;;;;;;;16.33;15.03;;;5.00;99.90;;;;;;5091820;28;20481;-75
2021/01/28 07:03:56;;;;;;;18.57;16.20;;;5.00;99.90;;;;;;5096426;28;20897;-75
2021/01/28 07:06:31;;;;;;;17.63;16.17;;;5.10;99.90;;;;;;5102082;28;20824;-75
2021/01/28 07:09:07;;;;;;;17.63;16.33;;;5.00;99.90;;;;;;5098336;28;20469;-75
2021/01/28 07:11:37;;;;;;;18.30;16.77;;;5.10;99.90;;;;;;5098705;28;20462;-75
2021/01/28 07:14:04;;;;;;;16.10;14.97;;;5.10;99.90;;;;;;5099917;28;20488;-75
2021/01/28 07:16:36;;;;;;;17.43;15.93;;;5.10;99.90;;;;;;5098311;28;20453;-74
2021/01/28 07:19:15;;;;;;;17.30;15.87;;;5.00;99.90;;;;;;5093290;28;20621;-75
2021/01/28 07:21:47;;;;;;;17.07;15.60;;;5.00;99.90;;;;;;5101721;28;20836;-75
2021/01/28 07:24:33;;;;;;;17.10;15.80;;;5.00;99.90;;;;;;5098118;28;20545;-75
2021/01/28 07:27:03;;;;;;;15.83;14.67;;;5.00;99.90;;;;;;5097910;28;20959;-75
2021/01/28 07:29:54;;;;;;;16.30;15.10;;;5.00;99.90;;;;;;5098892;28;20464;-75
2021/01/28 07:32:50;;;;;;;16.63;15.40;;;5.10;99.90;;;;;;5102957;28;20815;-75
2021/01/28 07:35:39;;;;;;;16.43;15.27;;;5.10;99.90;;;;;;5105862;28;20461;-75
2021/01/28 07:38:45;;;;;;;16.77;15.47;;;5.10;99.90;;;;;;5096161;28;20847;-75
2021/01/28 07:41:27;;;;;;;16.27;15.07;;;5.10;99.90;;;;;;5093457;28;20886;-76
2021/01/28 07:43:55;;;;;;;17.60;16.10;;;5.00;99.90;;;;;;5104466;28;20514;-75
2021/01/28 07:46:38;;;;;;;11.20;10.80;;;4.90;99.90;;;;;;5100738;28;20458;-76
2021/01/28 07:49:12;;;;;;;11.63;11.20;;;5.00;99.90;;;;;;5091112;28;20450;-75
2021/01/28 07:51:40;;;;;;;11.80;11.30;;;5.00;99.90;;;;;;5100800;28;20462;-76
2021/01/28 07:54:37;;;;;;;11.77;11.27;;;5.00;99.90;;;;;;5097486;28;20562;-76
2021/01/28 07:57:06;;;;;;;11.53;11.10;;;5.00;99.90;;;;;;5098923;28;20473;-76
2021/01/28 07:59:42;;;;;;;11.77;11.27;;;5.00;99.90;;;;;;5097454;28;20458;-75
2021/01/28 08:02:24;;;;;;;11.80;11.30;;;4.90;99.90;;;;;;5098861;28;20461;-76
2021/01/28 08:04:58;;;;;;;11.53;11.03;;;5.00;99.90;;;;;;5096918;28;20544;-76
2021/01/28 08:07:27;;;;;;;12.00;11.50;;;5.00;99.90;;;;;;5093679;28;20458;-76
2021/01/28 08:09:56;;;;;;;12.20;11.70;;;5.00;99.90;;;;;;5095283;28;20816;-76
2021/01/28 08:12:31;;;;;;;12.50;12.00;;;5.00;99.90;;;;;;5098352;28;20489;-76
2021/01/28 08:15:00;;;;;;;12.63;12.13;;;5.10;99.90;;;;;;5096385;28;20928;-76
2021/01/28 08:17:31;;;;;;;12.40;11.90;;;5.00;99.90;;;;;;5101755;28;20496;-76
2021/01/28 08:20:23;;;;;;;12.17;11.67;;;5.10;99.90;;;;;;5096990;28;20485;-76
2021/01/28 08:22:52;;;;;;;12.87;12.37;;;5.10;99.90;;;;;;5090912;28;20454;-76
2021/01/28 08:25:19;;;;;;;12.90;12.40;;;5.10;99.90;;;;;;5089197;28;20468;-75
2021/01/28 08:27:46;;;;;;;12.50;12.00;;;5.10;99.90;;;;;;5105321;28;20454;-76
2021/01/28 08:30:17;;;;;;;12.17;11.67;;;5.10;99.90;;;;;;5100957;28;20967;-76
2021/01/28 08:32:46;;;;;;;12.80;12.30;;;5.10;99.90;;;;;;5095596;28;20829;-76
2021/01/28 08:35:17;;;;;;;12.80;12.30;;;5.20;99.90;;;;;;5096660;28;20458;-76
2021/01/28 08:37:45;;;;;;;12.70;12.20;;;5.20;99.90;;;;;;5100360;28;20504;-76
2021/01/28 08:40:16;;;;;;;13.00;12.50;;;5.20;99.90;;;;;;5097991;28;20550;-75
2021/01/28 08:42:43;;;;;;;12.77;12.27;;;5.20;99.90;;;;;;5091532;28;20485;-76
2021/01/28 08:45:17;;;;;;;12.77;12.27;;;5.20;99.90;;;;;;5091684;28;20813;-76
2021/01/28 08:47:55;;;;;;;12.90;12.40;;;5.10;99.90;;;;;;5095943;28;20458;-75
2021/01/28 08:50:27;;;;;;;12.33;11.83;;;5.10;99.90;;;;;;5095289;28;20461;-75
2021/01/28 08:52:59;;;;;;;12.10;11.60;;;5.20;99.90;;;;;;5090505;28;20516;-76
2021/01/28 08:55:27;;;;;;;12.60;12.10;;;5.20;99.90;;;;;;5095084;28;20462;-76
2021/01/28 08:58:02;;;;;;;12.23;11.73;;;5.20;99.90;;;;;;5093043;28;20543;-75
2021/01/28 09:00:30;;;;;;;12.10;11.60;;;5.20;99.90;;;;;;5088680;28;20460;-76
2021/01/28 09:02:57;;;;;;;11.87;11.37;;;5.30;99.90;;;;;;5095444;28;20478;-76
2021/01/28 09:05:25;;;;;;;12.53;12.03;;;5.30;99.90;;;;;;5090046;28;20462;-75
2021/01/28 09:07:54;;;;;;;12.80;12.30;;;5.40;99.90;;;;;;5088151;28;20617;-76
2021/01/28 09:10:26;;;;;;;12.70;12.20;;;5.50;99.90;;;;;;5091613;28;20458;-75
2021/01/28 09:12:53;;;;;;;12.70;12.20;;;5.40;99.90;;;;;;5090327;28;20508;-75
2021/01/28 09:15:23;;;;;;;12.27;11.77;;;5.40;99.90;;;;;;5096749;28;20461;-76
2021/01/28 09:17:51;;;;;;;13.00;12.50;;;5.40;99.90;;;;;;5095025;28;20509;-75
2021/01/28 09:20:27;;;;;;;13.00;12.50;;;5.40;99.90;;;;;;5085513;28;20458;-76
2021/01/28 09:23:06;;;;;;;12.40;11.90;;;5.40;99.90;;;;;;5091765;28;20968;-76
2021/01/28 09:25:33;;;;;;;12.30;11.80;;;5.40;99.90;;;;;;5095505;28;20461;-75
2021/01/28 09:28:00;;;;;;;12.03;11.53;;;5.40;99.90;;;;;;5093885;28;20465;-75
2021/01/28 09:30:33;;;;;;;12.53;12.03;;;5.40;99.90;;;;;;5090712;28;20466;-75
2021/01/28 09:33:00;;;;;;;12.90;12.40;;;5.40;99.90;;;;;;5093313;28;20466;-75
2021/01/28 09:35:28;;;;;;;12.20;11.70;;;5.40;99.90;;;;;;5093678;28;20998;-75
2021/01/28 09:38:05;;;;;;;12.13;11.63;;;5.50;99.90;;;;;;5090028;28;20475;-74
2021/01/28 09:40:35;;;;;;;12.43;11.93;;;5.50;99.90;;;;;;5093816;28;20457;-74
2021/01/28 09:43:23;;;;;;;12.13;11.63;;;5.60;99.90;;;;;;5089617;28;20461;-76
2021/01/28 09:46:11;;;;;;;12.67;12.17;;;5.50;99.90;;;;;;5088766;28;20983;-76
2021/01/28 09:48:38;;;;;;;12.27;11.77;;;5.50;99.90;;;;;;5089338;28;20533;-76
2021/01/28 09:51:06;;;;;;;12.50;12.00;;;5.60;99.90;;;;;;5092130;28;20462;-76
2021/01/28 09:53:33;;;;;;;12.73;12.23;;;5.60;99.90;;;;;;5087483;28;20482;-74
2021/01/28 09:56:00;;;;;;;12.57;12.07;;;5.60;99.90;;;;;;5091795;28;20466;-74
2021/01/28 09:58:26;;;;;;;12.73;12.23;;;5.80;99.90;;;;;;5092399;28;20538;-74
2021/01/28 10:00:53;;;;;;;13.53;12.93;;;5.80;99.90;;;;;;5098783;28;20462;-74
2021/01/28 10:03:21;;;;;;;12.80;12.30;;;6.00;99.90;;;;;;5093142;28;20453;-74
2021/01/28 10:05:48;;;;;;;13.13;12.57;;;6.00;99.90;;;;;;5092641;28;20465;-74
2021/01/28 10:08:16;;;;;;;13.03;12.50;;;6.00;99.90;;;;;;5093778;28;20510;-75
2021/01/28 10:10:43;;;;;;;13.60;13.00;;;6.00;99.90;;;;;;5089981;28;20988;-75
2021/01/28 10:13:13;;;;;;;13.17;12.57;;;6.00;99.90;;;;;;5097942;28;20465;-75
2021/01/28 10:15:40;;;;;;;13.17;12.57;;;6.10;99.90;;;;;;5094771;28;21033;-75
2021/01/28 10:18:07;;;;;;;13.47;12.87;;;6.10;99.90;;;;;;5091190;28;20488;-75
2021/01/28 10:20:33;;;;;;;13.70;13.10;;;6.20;99.90;;;;;;5094172;28;20540;-75
2021/01/28 10:23:02;;;;;;;13.83;13.23;;;6.20;99.90;;;;;;5094731;28;20515;-77
2021/01/28 10:25:29;;;;;;;13.90;13.30;;;6.20;99.90;;;;;;5102139;28;20939;-77
2021/01/28 10:27:56;;;;;;;14.23;13.63;;;6.30;99.90;;;;;;5098866;28;20522;-75
2021/01/28 10:30:23;;;;;;;14.57;13.90;;;6.30;99.90;;;;;;5097411;28;20464;-75
2021/01/28 10:32:52;;;;;;;15.13;14.43;;;6.40;99.90;;;;;;5097587;28;20824;-75
2021/01/28 10:35:21;;;;;;;14.90;14.20;;;6.50;99.90;;;;;;5093743;28;20461;-75
2021/01/28 10:37:48;;;;;;;15.03;14.33;;;6.50;99.90;;;;;;5096625;28;21164;-75
2021/01/28 10:40:16;;;;;;;14.30;13.70;;;6.50;99.90;;;;;;5099983;28;20458;-76
2021/01/28 10:42:44;;;;;;;14.57;13.90;;;6.60;99.90;;;;;;5093069;28;20980;-76
2021/01/28 10:45:12;;;;;;;15.07;14.37;;;6.60;99.90;;;;;;5096216;28;20475;-75
2021/01/28 10:47:39;;;;;;;15.23;14.53;;;6.70;99.90;;;;;;5094686;28;20465;-76
2021/01/28 10:50:07;;;;;;;15.23;14.53;;;6.90;99.90;;;;;;5095674;28;20466;-76
2021/01/28 10:52:33;;;;;;;15.40;14.70;;;6.90;99.90;;;;;;5087798;28;21000;-75
2021/01/28 10:54:59;;;;;;;15.03;14.33;;;6.90;99.90;;;;;;5096003;28;20458;-76
2021/01/28 10:57:27;;;;;;;15.37;14.67;;;6.90;99.90;;;;;;5092975;28;20876;-75
2021/01/28 10:59:53;;;;;;;15.33;14.63;;;6.90;99.90;;;;;;5095356;28;20461;-76
2021/01/28 11:02:20;;;;;;;15.47;14.77;;;7.00;99.90;;;;;;5098642;28;20454;-76
2021/01/28 11:04:46;;;;;;;15.60;14.90;;;7.00;99.90;;;;;;5092810;28;20872;-76
2021/01/28 11:07:13;;;;;;;16.20;15.40;;;7.10;99.90;;;;;;5094916;28;20903;-76
2021/01/28 11:09:39;;;;;;;16.13;15.33;;;7.20;99.90;;;;;;5095065;28;20583;-75
2021/01/28 11:12:07;;;;;;;16.90;16.10;;;7.30;99.90;;;;;;5099873;28;20895;-75
2021/01/28 11:14:34;;;;;;;16.30;15.50;;;7.50;99.90;;;;;;5097213;28;20464;-75
2021/01/28 11:17:00;;;;;;;16.10;15.30;;;7.50;99.90;;;;;;5093007;28;20464;-75
2021/01/28 11:19:26;;;;;;;16.43;15.63;;;7.50;99.90;;;;;;5093418;28;20460;-75
2021/01/28 11:21:52;;;;;;;16.67;15.87;;;7.50;99.90;;;;;;5093546;28;20466;-75
2021/01/28 11:24:18;;;;;;;16.73;15.93;;;7.50;99.90;;;;;;5097131;28;20451;-75
2021/01/28 11:26:45;;;;;;;16.70;15.90;;;7.40;99.90;;;;;;5097499;28;20465;-75
2021/01/28 11:29:11;;;;;;;16.50;15.70;;;7.50;99.90;;;;;;5095712;28;20465;-75
2021/01/28 11:31:39;;;;;;;16.03;15.23;;;7.60;99.90;;;;;;5097155;28;20608;-75
2021/01/28 11:34:06;;;;;;;16.07;15.27;;;7.40;99.90;;;;;;5096888;28;20556;-75
2021/01/28 11:36:33;;;;;;;16.10;15.30;;;7.30;99.90;;;;;;5098656;28;20546;-75
2021/01/28 11:38:59;;;;;;;15.70;14.90;;;7.00;99.90;;;;;;5097952;28;20493;-75
2021/01/28 11:41:27;;;;;;;16.00;15.20;;;6.90;99.90;;;;;;5097985;28;20466;-75
2021/01/28 11:43:54;;;;;;;16.00;15.20;;;6.90;99.90;;;;;;5098713;28;20829;-74
2021/01/28 11:46:20;;;;;;;15.90;15.10;;;7.00;99.90;;;;;;5099823;28;20466;-74
2021/01/28 11:48:48;;;;;;;16.00;15.20;;;7.00;99.90;;;;;;5089702;28;20822;-75
2021/01/28 11:51:14;;;;;;;15.50;14.80;;;7.20;99.90;;;;;;5094161;28;20464;-75
2021/01/28 11:53:41;;;;;;;16.43;15.63;;;7.10;99.90;;;;;;5088738;28;20547;-75
2021/01/28 11:56:07;;;;;;;15.00;14.30;;;7.10;99.90;;;;;;5095652;28;21032;-75
2021/01/28 11:58:34;;;;;;;14.83;14.13;;;7.00;99.90;;;;;;5098908;28;21071;-75
2021/01/28 12:01:00;;;;;;;15.30;14.60;;;7.10;99.90;;;;;;5098260;28;20490;-75
2021/01/28 12:03:28;;;;;;;14.60;13.90;;;7.20;99.90;;;;;;5093754;28;20458;-75
2021/01/28 12:05:55;;;;;;;15.17;14.47;;;7.20;99.90;;;;;;5098594;28;20462;-75
2021/01/28 12:08:22;;;;;;;15.00;14.30;;;7.20;99.90;;;;;;5094543;28;20470;-76
2021/01/28 12:10:49;;;;;;;14.80;14.10;;;7.10;99.90;;;;;;5092971;28;20462;-76
2021/01/28 12:13:15;;;;;;;15.40;14.70;;;7.00;99.90;;;;;;5094296;28;20459;-76
2021/01/28 12:15:41;;;;;;;15.20;14.50;;;7.10;99.90;;;;;;5099743;28;20457;-75
2021/01/28 12:18:08;;;;;;;14.80;14.10;;;6.90;99.90;;;;;;5094951;28;20481;-75
2021/01/28 12:20:34;;;;;;;15.00;14.30;;;6.80;99.90;;;;;;5095280;28;20539;-75
2021/01/28 12:23:02;;;;;;;14.50;13.80;;;6.90;99.90;;;;;;5095593;28;20500;-76
2021/01/28 12:25:28;;;;;;;15.60;14.90;;;6.90;99.90;;;;;;5094719;28;20552;-76
2021/01/28 12:27:55;;;;;;;15.50;14.80;;;7.10;99.90;;;;;;5090858;28;20469;-76
2021/01/28 12:30:24;;;;;;;15.53;14.83;;;7.20;99.90;;;;;;5098425;28;20572;-76
2021/01/28 12:32:50;;;;;;;15.00;14.30;;;7.10;99.90;;;;;;5095873;28;20989;-76
2021/01/28 12:35:18;;;;;;;15.27;14.57;;;7.10;99.90;;;;;;5092476;28;20458;-76
2021/01/28 12:37:45;;;;;;;15.20;14.50;;;7.10;99.90;;;;;;5086390;28;20480;-77
2021/01/28 12:40:15;;;;;;;14.97;14.27;;;6.90;99.90;;;;;;5090061;28;20483;-77
2021/01/28 12:42:42;;;;;;;14.20;13.60;;;7.10;99.90;;;;;;5090213;28;20462;-77
2021/01/28 12:45:09;;;;;;;14.90;14.20;;;7.20;99.90;;;;;;5089280;28;20480;-77
2021/01/28 12:47:35;;;;;;;15.60;14.90;;;7.50;99.90;;;;;;5098595;28;20597;-77
2021/01/28 12:50:01;;;;;;;16.00;15.30;;;7.60;99.90;;;;;;5093179;28;20607;-77
2021/01/28 12:52:27;;;;;;;16.10;15.40;;;7.60;99.90;;;;;;5093145;28;20882;-74